sensor_id;sensor_type;location;lat;lon;timestamp;temperature;humidity
12436;DHT22;6282;51.440;6.938;2022-09-20T00:00:29;10.60;99.90
12436;DHT22;6282;51.440;6.938;2022-09-20T00:02:56;10.90;99.90
12436;DHT22;6282;51.440;6.938;2022-09-20T00:05:23;11.00;99.90
12436;DHT22;6282;51.440;6.938;2022-09-20T00:07:50;11.00;99.90
12436;DHT22;6282;51.440;6.938;2022-09-20T00:10:16;11.00;99.90
12436;DHT22;6282;51.440;6.938;2022-09-20T00:12:44;11.10;99.90
12436;DHT22;6282;51.440;6.938;2022-09-20T00:15:11;11.10;99.90
12436;DHT22;6282;51.440;6.938;2022-09-20T00:17:38;11.00;99.90
12436;DHT22;6282;51.440;6.938;2022-09-20T00:20:05;11.10;99.90
12436;DHT22;6282;51.440;6.938;2022-09-20T00:22:32;11.10;99.90
12436;DHT22;6282;51.440;6.938;2022-09-20T00:24:59;11.10;99.90
12436;DHT22;6282;51.440;6.938;2022-09-20T00:27:26;11.00;99.90
12436;DHT22;6282;51.440;6.938;2022-09-20T00:29:54;11.00;99.90
12436;DHT22;6282;51.440;6.938;2022-09-20T00:32:21;11.00;99.90
12436;DHT22;6282;51.440;6.938;2022-09-20T00:34:47;11.00;99.90
12436;DHT22;6282;51.440;6.938;2022-09-20T00:37:35;10.80;99.90
12436;DHT22;6282;51.440;6.938;2022-09-20T00:40:03;11.00;99.90
12436;DHT22;6282;51.440;6.938;2022-09-20T00:42:31;10.80;99.90
12436;DHT22;6282;51.440;6.938;2022-09-20T00:45:00;10.70;99.90
12436;DHT22;6282;51.440;6.938;2022-09-20T00:47:40;10.70;99.90
12436;DHT22;6282;51.440;6.938;2022-09-20T00:50:28;10.80;99.90
12436;DHT22;6282;51.440;6.938;2022-09-20T00:53:01;10.70;99.90
12436;DHT22;6282;51.440;6.938;2022-09-20T00:55:30;10.60;99.90
12436;DHT22;6282;51.440;6.938;2022-09-20T00:57:58;10.60;99.90
12436;DHT22;6282;51.440;6.938;2022-09-20T01:00:27;10.40;99.90
12436;DHT22;6282;51.440;6.938;2022-09-20T01:02:58;10.50;99.90
12436;DHT22;6282;51.440;6.938;2022-09-20T01:05:26;10.30;99.90
12436;DHT22;6282;51.440;6.938;2022-09-20T01:07:54;10.20;99.90
12436;DHT22;6282;51.440;6.938;2022-09-20T01:10:37;10.40;99.90
12436;DHT22;6282;51.440;6.938;2022-09-20T01:13:10;10.40;99.90
12436;DHT22;6282;51.440;6.938;2022-09-20T01:15:39;10.30;99.90
12436;DHT22;6282;51.440;6.938;2022-09-20T01:18:08;10.20;99.90
12436;DHT22;6282;51.440;6.938;2022-09-20T01:20:38;10.40;99.90
12436;DHT22;6282;51.440;6.938;2022-09-20T01:23:30;10.40;99.90
12436;DHT22;6282;51.440;6.938;2022-09-20T01:29:21;10.40;99.90
12436;DHT22;6282;51.440;6.938;2022-09-20T01:31:53;10.30;99.90
12436;DHT22;6282;51.440;6.938;2022-09-20T01:34:24;10.30;99.90
12436;DHT22;6282;51.440;6.938;2022-09-20T01:36:56;10.30;99.90
12436;DHT22;6282;51.440;6.938;2022-09-20T01:39:35;10.30;99.90
12436;DHT22;6282;51.440;6.938;2022-09-20T01:42:08;10.20;99.90
12436;DHT22;6282;51.440;6.938;2022-09-20T01:44:39;10.30;99.90
12436;DHT22;6282;51.440;6.938;2022-09-20T01:47:18;10.50;99.90
12436;DHT22;6282;51.440;6.938;2022-09-20T01:49:55;10.40;99.90
12436;DHT22;6282;51.440;6.938;2022-09-20T01:52:55;10.20;99.90
12436;DHT22;6282;51.440;6.938;2022-09-20T01:58:44;10.00;99.90
12436;DHT22;6282;51.440;6.938;2022-09-20T02:01:47;10.50;99.90
12436;DHT22;6282;51.440;6.938;2022-09-20T02:10:34;10.40;99.90
12436;DHT22;6282;51.440;6.938;2022-09-20T02:13:09;10.30;99.90
12436;DHT22;6282;51.440;6.938;2022-09-20T02:15:59;10.50;99.90
12436;DHT22;6282;51.440;6.938;2022-09-20T02:22:08;10.50;99.90
12436;DHT22;6282;51.440;6.938;2022-09-20T02:24:40;10.50;99.90
12436;DHT22;6282;51.440;6.938;2022-09-20T02:27:16;10.30;99.90
12436;DHT22;6282;51.440;6.938;2022-09-20T02:30:13;10.30;99.90
12436;DHT22;6282;51.440;6.938;2022-09-20T02:33:19;10.40;99.90
12436;DHT22;6282;51.440;6.938;2022-09-20T02:35:59;10.50;99.90
12436;DHT22;6282;51.440;6.938;2022-09-20T02:38:41;10.50;99.90
12436;DHT22;6282;51.440;6.938;2022-09-20T02:44:21;10.40;99.90
12436;DHT22;6282;51.440;6.938;2022-09-20T02:46:55;10.50;99.90
12436;DHT22;6282;51.440;6.938;2022-09-20T02:49:30;10.50;99.90
12436;DHT22;6282;51.440;6.938;2022-09-20T02:52:06;10.50;99.90
12436;DHT22;6282;51.440;6.938;2022-09-20T02:54:56;10.40;99.90
12436;DHT22;6282;51.440;6.938;2022-09-20T02:57:31;10.30;99.90
12436;DHT22;6282;51.440;6.938;2022-09-20T03:00:03;10.50;99.90
12436;DHT22;6282;51.440;6.938;2022-09-20T03:02:38;10.50;99.90
12436;DHT22;6282;51.440;6.938;2022-09-20T03:05:15;10.30;99.90
12436;DHT22;6282;51.440;6.938;2022-09-20T03:08:03;10.20;99.90
12436;DHT22;6282;51.440;6.938;2022-09-20T03:10:41;10.40;99.90
12436;DHT22;6282;51.440;6.938;2022-09-20T03:13:18;10.50;99.90
12436;DHT22;6282;51.440;6.938;2022-09-20T03:15:58;10.50;99.90
12436;DHT22;6282;51.440;6.938;2022-09-20T03:18:45;10.50;99.90
12436;DHT22;6282;51.440;6.938;2022-09-20T03:21:29;10.40;99.90
12436;DHT22;6282;51.440;6.938;2022-09-20T03:24:07;10.70;99.90
12436;DHT22;6282;51.440;6.938;2022-09-20T03:26:50;10.60;99.90
12436;DHT22;6282;51.440;6.938;2022-09-20T03:29:30;10.80;99.90
12436;DHT22;6282;51.440;6.938;2022-09-20T03:32:11;10.70;99.90
12436;DHT22;6282;51.440;6.938;2022-09-20T03:34:52;10.70;99.90
12436;DHT22;6282;51.440;6.938;2022-09-20T03:40:32;10.90;99.90
12436;DHT22;6282;51.440;6.938;2022-09-20T03:43:12;10.60;99.90
12436;DHT22;6282;51.440;6.938;2022-09-20T03:45:53;10.80;99.90
12436;DHT22;6282;51.440;6.938;2022-09-20T03:48:47;10.80;99.90
12436;DHT22;6282;51.440;6.938;2022-09-20T03:51:21;10.90;99.90
12436;DHT22;6282;51.440;6.938;2022-09-20T03:57:25;11.00;99.90
12436;DHT22;6282;51.440;6.938;2022-09-20T04:00:19;10.90;99.90
12436;DHT22;6282;51.440;6.938;2022-09-20T04:03:13;10.80;99.90
12436;DHT22;6282;51.440;6.938;2022-09-20T04:05:51;11.00;99.90
12436;DHT22;6282;51.440;6.938;2022-09-20T04:08:35;10.90;99.90
12436;DHT22;6282;51.440;6.938;2022-09-20T04:11:07;10.90;99.90
12436;DHT22;6282;51.440;6.938;2022-09-20T04:13:45;11.00;99.90
12436;DHT22;6282;51.440;6.938;2022-09-20T04:16:24;11.00;99.90
12436;DHT22;6282;51.440;6.938;2022-09-20T04:18:59;11.00;99.90
12436;DHT22;6282;51.440;6.938;2022-09-20T04:21:33;11.00;99.90
12436;DHT22;6282;51.440;6.938;2022-09-20T04:24:08;11.00;99.90
12436;DHT22;6282;51.440;6.938;2022-09-20T04:26:40;11.00;99.90
12436;DHT22;6282;51.440;6.938;2022-09-20T04:29:24;11.20;99.90
12436;DHT22;6282;51.440;6.938;2022-09-20T04:31:58;10.90;99.90
12436;DHT22;6282;51.440;6.938;2022-09-20T04:34:30;11.00;99.90
12436;DHT22;6282;51.440;6.938;2022-09-20T04:37:23;11.00;99.90
12436;DHT22;6282;51.440;6.938;2022-09-20T04:40:19;11.00;99.90
12436;DHT22;6282;51.440;6.938;2022-09-20T04:43:23;11.00;99.90
12436;DHT22;6282;51.440;6.938;2022-09-20T04:46:16;11.10;99.90
12436;DHT22;6282;51.440;6.938;2022-09-20T04:49:12;11.30;99.90
12436;DHT22;6282;51.440;6.938;2022-09-20T04:52:29;11.20;99.90
12436;DHT22;6282;51.440;6.938;2022-09-20T04:55:45;11.00;99.90
12436;DHT22;6282;51.440;6.938;2022-09-20T04:58:48;11.10;99.90
12436;DHT22;6282;51.440;6.938;2022-09-20T05:01:39;11.20;99.90
12436;DHT22;6282;51.440;6.938;2022-09-20T05:04:51;11.10;99.90
12436;DHT22;6282;51.440;6.938;2022-09-20T05:10:55;11.30;99.90
12436;DHT22;6282;51.440;6.938;2022-09-20T05:13:34;11.10;99.90
12436;DHT22;6282;51.440;6.938;2022-09-20T05:16:06;11.00;99.90
12436;DHT22;6282;51.440;6.938;2022-09-20T05:19:05;11.10;99.90
12436;DHT22;6282;51.440;6.938;2022-09-20T05:21:58;11.20;99.90
12436;DHT22;6282;51.440;6.938;2022-09-20T05:24:41;11.20;99.90
12436;DHT22;6282;51.440;6.938;2022-09-20T05:27:24;11.20;99.90
12436;DHT22;6282;51.440;6.938;2022-09-20T05:30:00;11.40;99.90
12436;DHT22;6282;51.440;6.938;2022-09-20T05:32:35;11.40;99.90
12436;DHT22;6282;51.440;6.938;2022-09-20T05:35:05;11.60;99.90
12436;DHT22;6282;51.440;6.938;2022-09-20T05:37:45;11.60;99.90
12436;DHT22;6282;51.440;6.938;2022-09-20T05:40:21;11.50;99.90
12436;DHT22;6282;51.440;6.938;2022-09-20T05:42:55;11.60;99.90
12436;DHT22;6282;51.440;6.938;2022-09-20T05:45:45;11.40;99.90
12436;DHT22;6282;51.440;6.938;2022-09-20T05:48:14;11.40;99.90
12436;DHT22;6282;51.440;6.938;2022-09-20T05:50:50;11.40;99.90
12436;DHT22;6282;51.440;6.938;2022-09-20T05:56:33;11.50;99.90
12436;DHT22;6282;51.440;6.938;2022-09-20T05:59:20;11.40;99.90
12436;DHT22;6282;51.440;6.938;2022-09-20T06:02:01;11.60;99.90
12436;DHT22;6282;51.440;6.938;2022-09-20T06:04:37;11.30;99.90
12436;DHT22;6282;51.440;6.938;2022-09-20T06:07:16;11.40;99.90
12436;DHT22;6282;51.440;6.938;2022-09-20T06:10:04;11.50;99.90
12436;DHT22;6282;51.440;6.938;2022-09-20T06:12:46;11.50;99.90
12436;DHT22;6282;51.440;6.938;2022-09-20T06:15:21;11.60;99.90
12436;DHT22;6282;51.440;6.938;2022-09-20T06:17:56;11.60;99.90
12436;DHT22;6282;51.440;6.938;2022-09-20T06:20:28;11.60;99.90
12436;DHT22;6282;51.440;6.938;2022-09-20T06:22:58;11.70;99.90
12436;DHT22;6282;51.440;6.938;2022-09-20T06:25:29;11.80;99.90
12436;DHT22;6282;51.440;6.938;2022-09-20T06:28:05;11.90;99.90
12436;DHT22;6282;51.440;6.938;2022-09-20T06:30:39;12.00;99.90
12436;DHT22;6282;51.440;6.938;2022-09-20T06:33:13;12.00;99.90
12436;DHT22;6282;51.440;6.938;2022-09-20T06:35:45;12.00;99.90
12436;DHT22;6282;51.440;6.938;2022-09-20T06:38:25;12.00;99.90
12436;DHT22;6282;51.440;6.938;2022-09-20T06:41:14;11.80;99.90
12436;DHT22;6282;51.440;6.938;2022-09-20T06:43:55;12.10;99.90
12436;DHT22;6282;51.440;6.938;2022-09-20T06:46:25;12.10;99.90
12436;DHT22;6282;51.440;6.938;2022-09-20T06:48:54;12.00;99.90
12436;DHT22;6282;51.440;6.938;2022-09-20T06:51:22;12.00;99.90
12436;DHT22;6282;51.440;6.938;2022-09-20T06:53:49;12.00;99.90
12436;DHT22;6282;51.440;6.938;2022-09-20T06:56:18;12.20;99.90
12436;DHT22;6282;51.440;6.938;2022-09-20T06:58:45;12.30;99.90
12436;DHT22;6282;51.440;6.938;2022-09-20T07:01:14;12.20;99.90
12436;DHT22;6282;51.440;6.938;2022-09-20T07:03:41;12.20;99.90
12436;DHT22;6282;51.440;6.938;2022-09-20T07:06:08;12.30;99.90
12436;DHT22;6282;51.440;6.938;2022-09-20T07:08:35;12.40;99.90
12436;DHT22;6282;51.440;6.938;2022-09-20T07:11:04;12.80;99.90
12436;DHT22;6282;51.440;6.938;2022-09-20T07:13:31;12.80;99.90
12436;DHT22;6282;51.440;6.938;2022-09-20T07:16:02;12.70;99.90
12436;DHT22;6282;51.440;6.938;2022-09-20T07:18:33;12.80;99.90
12436;DHT22;6282;51.440;6.938;2022-09-20T07:21:00;12.80;99.90
12436;DHT22;6282;51.440;6.938;2022-09-20T07:23:28;13.30;99.90
12436;DHT22;6282;51.440;6.938;2022-09-20T07:25:55;13.10;99.90
12436;DHT22;6282;51.440;6.938;2022-09-20T07:28:24;13.10;99.90
12436;DHT22;6282;51.440;6.938;2022-09-20T07:30:50;13.00;99.90
12436;DHT22;6282;51.440;6.938;2022-09-20T07:33:17;12.80;99.90
12436;DHT22;6282;51.440;6.938;2022-09-20T07:35:48;12.80;99.90
12436;DHT22;6282;51.440;6.938;2022-09-20T07:38:14;12.50;99.90
12436;DHT22;6282;51.440;6.938;2022-09-20T07:40:42;12.60;99.90
12436;DHT22;6282;51.440;6.938;2022-09-20T07:43:09;12.50;99.90
12436;DHT22;6282;51.440;6.938;2022-09-20T07:45:36;12.90;99.90
12436;DHT22;6282;51.440;6.938;2022-09-20T07:48:04;13.00;99.90
12436;DHT22;6282;51.440;6.938;2022-09-20T07:50:32;13.40;99.90
12436;DHT22;6282;51.440;6.938;2022-09-20T07:53:00;13.20;99.90
12436;DHT22;6282;51.440;6.938;2022-09-20T07:55:27;13.30;99.90
12436;DHT22;6282;51.440;6.938;2022-09-20T07:57:55;14.90;99.90
12436;DHT22;6282;51.440;6.938;2022-09-20T08:00:22;15.80;99.90
12436;DHT22;6282;51.440;6.938;2022-09-20T08:02:56;18.00;99.90
12436;DHT22;6282;51.440;6.938;2022-09-20T08:05:24;18.80;99.90
12436;DHT22;6282;51.440;6.938;2022-09-20T08:07:51;19.00;99.90
12436;DHT22;6282;51.440;6.938;2022-09-20T08:10:20;19.70;99.90
12436;DHT22;6282;51.440;6.938;2022-09-20T08:12:47;17.90;99.90
12436;DHT22;6282;51.440;6.938;2022-09-20T08:15:15;16.10;99.90
12436;DHT22;6282;51.440;6.938;2022-09-20T08:17:45;15.80;99.90
12436;DHT22;6282;51.440;6.938;2022-09-20T08:20:12;14.80;99.90
12436;DHT22;6282;51.440;6.938;2022-09-20T08:22:39;14.40;99.90
12436;DHT22;6282;51.440;6.938;2022-09-20T08:25:08;14.30;99.90
12436;DHT22;6282;51.440;6.938;2022-09-20T08:27:36;14.00;99.90
12436;DHT22;6282;51.440;6.938;2022-09-20T08:30:04;14.20;99.90
12436;DHT22;6282;51.440;6.938;2022-09-20T08:32:31;14.20;99.90
12436;DHT22;6282;51.440;6.938;2022-09-20T08:34:58;14.30;99.90
12436;DHT22;6282;51.440;6.938;2022-09-20T08:37:25;13.80;99.90
12436;DHT22;6282;51.440;6.938;2022-09-20T08:39:52;13.70;99.90
12436;DHT22;6282;51.440;6.938;2022-09-20T08:42:23;13.70;99.90
12436;DHT22;6282;51.440;6.938;2022-09-20T08:44:56;13.80;99.90
12436;DHT22;6282;51.440;6.938;2022-09-20T08:47:26;13.70;99.90
12436;DHT22;6282;51.440;6.938;2022-09-20T08:49:54;13.70;99.90
12436;DHT22;6282;51.440;6.938;2022-09-20T08:52:26;13.80;99.90
12436;DHT22;6282;51.440;6.938;2022-09-20T08:54:55;13.90;99.90
12436;DHT22;6282;51.440;6.938;2022-09-20T08:57:26;14.30;99.90
12436;DHT22;6282;51.440;6.938;2022-09-20T08:59:57;14.60;99.90
12436;DHT22;6282;51.440;6.938;2022-09-20T09:02:24;14.80;99.90
12436;DHT22;6282;51.440;6.938;2022-09-20T09:04:51;15.30;99.90
12436;DHT22;6282;51.440;6.938;2022-09-20T09:07:19;15.80;99.90
12436;DHT22;6282;51.440;6.938;2022-09-20T09:09:49;15.90;99.90
12436;DHT22;6282;51.440;6.938;2022-09-20T09:12:20;15.80;99.90
12436;DHT22;6282;51.440;6.938;2022-09-20T09:14:48;15.30;99.90
12436;DHT22;6282;51.440;6.938;2022-09-20T09:17:22;15.20;99.90
12436;DHT22;6282;51.440;6.938;2022-09-20T09:19:50;15.30;99.90
12436;DHT22;6282;51.440;6.938;2022-09-20T09:22:23;15.20;99.90
12436;DHT22;6282;51.440;6.938;2022-09-20T09:25:22;15.00;99.90
12436;DHT22;6282;51.440;6.938;2022-09-20T09:27:52;15.00;99.90
12436;DHT22;6282;51.440;6.938;2022-09-20T09:30:22;14.70;99.90
12436;DHT22;6282;51.440;6.938;2022-09-20T09:32:51;14.70;99.90
12436;DHT22;6282;51.440;6.938;2022-09-20T09:35:25;14.70;99.90
12436;DHT22;6282;51.440;6.938;2022-09-20T09:37:55;15.00;99.90
12436;DHT22;6282;51.440;6.938;2022-09-20T09:40:22;15.10;99.90
12436;DHT22;6282;51.440;6.938;2022-09-20T09:42:51;15.10;99.90
12436;DHT22;6282;51.440;6.938;2022-09-20T09:45:28;15.00;99.90
12436;DHT22;6282;51.440;6.938;2022-09-20T09:47:58;14.90;99.90
12436;DHT22;6282;51.440;6.938;2022-09-20T09:50:28;14.90;99.90
12436;DHT22;6282;51.440;6.938;2022-09-20T09:52:57;14.80;99.90
12436;DHT22;6282;51.440;6.938;2022-09-20T09:55:35;14.60;99.90
12436;DHT22;6282;51.440;6.938;2022-09-20T09:58:05;14.60;99.90
12436;DHT22;6282;51.440;6.938;2022-09-20T10:00:38;14.40;99.90
12436;DHT22;6282;51.440;6.938;2022-09-20T10:03:30;14.50;99.90
12436;DHT22;6282;51.440;6.938;2022-09-20T10:06:10;14.40;99.90
12436;DHT22;6282;51.440;6.938;2022-09-20T10:08:49;14.30;99.90
12436;DHT22;6282;51.440;6.938;2022-09-20T10:11:27;14.30;99.90
12436;DHT22;6282;51.440;6.938;2022-09-20T10:14:04;14.30;99.90
12436;DHT22;6282;51.440;6.938;2022-09-20T10:16:45;14.30;99.90
12436;DHT22;6282;51.440;6.938;2022-09-20T10:19:23;14.00;99.90
12436;DHT22;6282;51.440;6.938;2022-09-20T10:21:56;14.20;99.90
12436;DHT22;6282;51.440;6.938;2022-09-20T10:24:32;14.00;99.90
12436;DHT22;6282;51.440;6.938;2022-09-20T10:27:13;13.80;99.90
12436;DHT22;6282;51.440;6.938;2022-09-20T10:29:54;13.50;99.90
12436;DHT22;6282;51.440;6.938;2022-09-20T10:32:40;13.30;99.90
12436;DHT22;6282;51.440;6.938;2022-09-20T10:35:21;13.30;99.90
12436;DHT22;6282;51.440;6.938;2022-09-20T10:38:03;13.20;99.90
12436;DHT22;6282;51.440;6.938;2022-09-20T10:40:35;13.20;99.90
12436;DHT22;6282;51.440;6.938;2022-09-20T10:43:33;13.50;99.90
12436;DHT22;6282;51.440;6.938;2022-09-20T10:46:13;13.90;99.90
12436;DHT22;6282;51.440;6.938;2022-09-20T10:48:46;14.00;99.90
12436;DHT22;6282;51.440;6.938;2022-09-20T10:51:23;14.20;99.90
12436;DHT22;6282;51.440;6.938;2022-09-20T10:54:01;14.40;99.90
12436;DHT22;6282;51.440;6.938;2022-09-20T10:56:32;14.60;99.90
12436;DHT22;6282;51.440;6.938;2022-09-20T10:59:18;15.00;99.90
12436;DHT22;6282;51.440;6.938;2022-09-20T11:01:59;15.70;99.90
12436;DHT22;6282;51.440;6.938;2022-09-20T11:05:00;15.50;99.90
12436;DHT22;6282;51.440;6.938;2022-09-20T11:07:42;15.30;99.90
12436;DHT22;6282;51.440;6.938;2022-09-20T11:10:14;15.50;99.90
12436;DHT22;6282;51.440;6.938;2022-09-20T11:12:47;15.50;99.90
12436;DHT22;6282;51.440;6.938;2022-09-20T11:15:20;15.30;99.90
12436;DHT22;6282;51.440;6.938;2022-09-20T11:17:55;15.20;99.90
12436;DHT22;6282;51.440;6.938;2022-09-20T11:20:27;15.20;99.90
12436;DHT22;6282;51.440;6.938;2022-09-20T11:22:59;15.50;99.90
12436;DHT22;6282;51.440;6.938;2022-09-20T11:25:33;15.30;99.90
12436;DHT22;6282;51.440;6.938;2022-09-20T11:28:07;15.30;99.90
12436;DHT22;6282;51.440;6.938;2022-09-20T11:30:39;15.50;99.90
12436;DHT22;6282;51.440;6.938;2022-09-20T11:33:14;15.30;2.20
12436;DHT22;6282;51.440;6.938;2022-09-20T11:35:45;15.50;99.90
12436;DHT22;6282;51.440;6.938;2022-09-20T11:38:18;15.50;1.00
12436;DHT22;6282;51.440;6.938;2022-09-20T11:40:50;15.60;99.90
12436;DHT22;6282;51.440;6.938;2022-09-20T11:43:19;15.50;80.00
12436;DHT22;6282;51.440;6.938;2022-09-20T11:45:50;15.40;1.00
12436;DHT22;6282;51.440;6.938;2022-09-20T11:48:22;15.50;99.90
12436;DHT22;6282;51.440;6.938;2022-09-20T11:51:19;15.40;99.90
12436;DHT22;6282;51.440;6.938;2022-09-20T11:54:19;15.60;99.90
12436;DHT22;6282;51.440;6.938;2022-09-20T11:56:50;15.80;1.00
12436;DHT22;6282;51.440;6.938;2022-09-20T11:59:27;15.80;1.00
12436;DHT22;6282;51.440;6.938;2022-09-20T12:01:56;16.00;99.90
12436;DHT22;6282;51.440;6.938;2022-09-20T12:04:26;16.10;99.90
12436;DHT22;6282;51.440;6.938;2022-09-20T12:07:00;16.20;1.00
12436;DHT22;6282;51.440;6.938;2022-09-20T12:09:31;15.90;1.00
12436;DHT22;6282;51.440;6.938;2022-09-20T12:12:13;16.20;22.50
12436;DHT22;6282;51.440;6.938;2022-09-20T12:14:41;16.00;1.00
12436;DHT22;6282;51.440;6.938;2022-09-20T12:26:39;16.30;1.00
12436;DHT22;6282;51.440;6.938;2022-09-20T12:32:39;16.20;1.00
12436;DHT22;6282;51.440;6.938;2022-09-20T12:38:38;16.30;99.90
12436;DHT22;6282;51.440;6.938;2022-09-20T12:41:13;16.30;99.90
12436;DHT22;6282;51.440;6.938;2022-09-20T12:44:04;16.20;1.00
12436;DHT22;6282;51.440;6.938;2022-09-20T12:46:39;16.10;1.00
12436;DHT22;6282;51.440;6.938;2022-09-20T12:52:22;16.20;1.00
12436;DHT22;6282;51.440;6.938;2022-09-20T12:55:08;16.20;99.90
12436;DHT22;6282;51.440;6.938;2022-09-20T12:57:36;16.30;99.90
12436;DHT22;6282;51.440;6.938;2022-09-20T13:00:07;16.30;1.00
12436;DHT22;6282;51.440;6.938;2022-09-20T13:03:00;16.20;99.90
12436;DHT22;6282;51.440;6.938;2022-09-20T13:05:37;16.30;99.90
12436;DHT22;6282;51.440;6.938;2022-09-20T13:08:13;16.30;99.90
12436;DHT22;6282;51.440;6.938;2022-09-20T13:10:42;16.30;99.90
12436;DHT22;6282;51.440;6.938;2022-09-20T13:13:27;16.40;99.90
12436;DHT22;6282;51.440;6.938;2022-09-20T13:15:58;16.30;99.90
12436;DHT22;6282;51.440;6.938;2022-09-20T13:18:26;16.20;99.90
12436;DHT22;6282;51.440;6.938;2022-09-20T13:20:55;16.10;99.90
12436;DHT22;6282;51.440;6.938;2022-09-20T13:23:27;16.20;99.90
12436;DHT22;6282;51.440;6.938;2022-09-20T13:25:56;15.90;99.90
12436;DHT22;6282;51.440;6.938;2022-09-20T13:28:37;15.70;1.00
12436;DHT22;6282;51.440;6.938;2022-09-20T13:31:29;16.00;99.90
12436;DHT22;6282;51.440;6.938;2022-09-20T13:34:14;16.50;99.90
12436;DHT22;6282;51.440;6.938;2022-09-20T13:36:41;16.60;99.90
12436;DHT22;6282;51.440;6.938;2022-09-20T13:39:22;16.60;38.20
12436;DHT22;6282;51.440;6.938;2022-09-20T13:41:50;16.50;51.70
12436;DHT22;6282;51.440;6.938;2022-09-20T13:44:18;16.40;30.50
12436;DHT22;6282;51.440;6.938;2022-09-20T13:46:46;16.40;53.40
12436;DHT22;6282;51.440;6.938;2022-09-20T13:49:14;16.20;1.00
12436;DHT22;6282;51.440;6.938;2022-09-20T13:51:45;16.10;1.00
12436;DHT22;6282;51.440;6.938;2022-09-20T13:54:23;16.00;1.00
12436;DHT22;6282;51.440;6.938;2022-09-20T13:56:52;15.90;1.00
12436;DHT22;6282;51.440;6.938;2022-09-20T13:59:19;15.80;1.00
12436;DHT22;6282;51.440;6.938;2022-09-20T14:01:53;15.70;85.00
12436;DHT22;6282;51.440;6.938;2022-09-20T14:04:22;15.80;41.20
12436;DHT22;6282;51.440;6.938;2022-09-20T14:06:52;15.70;99.90
12436;DHT22;6282;51.440;6.938;2022-09-20T14:09:26;15.50;1.00
12436;DHT22;6282;51.440;6.938;2022-09-20T14:11:54;15.70;99.90
12436;DHT22;6282;51.440;6.938;2022-09-20T14:14:23;15.60;1.00
12436;DHT22;6282;51.440;6.938;2022-09-20T14:16:53;15.40;99.00
12436;DHT22;6282;51.440;6.938;2022-09-20T14:19:26;15.40;99.90
12436;DHT22;6282;51.440;6.938;2022-09-20T14:21:54;15.40;1.60
12436;DHT22;6282;51.440;6.938;2022-09-20T14:24:30;15.40;94.00
12436;DHT22;6282;51.440;6.938;2022-09-20T14:27:10;15.30;99.90
12436;DHT22;6282;51.440;6.938;2022-09-20T14:29:40;15.30;99.90
12436;DHT22;6282;51.440;6.938;2022-09-20T14:32:23;15.20;99.90
12436;DHT22;6282;51.440;6.938;2022-09-20T14:34:59;15.10;99.90
12436;DHT22;6282;51.440;6.938;2022-09-20T14:37:28;15.10;99.90
12436;DHT22;6282;51.440;6.938;2022-09-20T14:39:57;15.00;99.90
12436;DHT22;6282;51.440;6.938;2022-09-20T14:42:29;14.80;1.00
12436;DHT22;6282;51.440;6.938;2022-09-20T14:44:57;14.80;1.00
12436;DHT22;6282;51.440;6.938;2022-09-20T14:47:35;14.70;1.00
12436;DHT22;6282;51.440;6.938;2022-09-20T14:50:03;14.60;1.00
12436;DHT22;6282;51.440;6.938;2022-09-20T14:52:39;14.60;99.90
12436;DHT22;6282;51.440;6.938;2022-09-20T14:55:30;14.50;99.90
12436;DHT22;6282;51.440;6.938;2022-09-20T14:57:59;14.60;99.90
12436;DHT22;6282;51.440;6.938;2022-09-20T15:00:26;14.70;76.40
12436;DHT22;6282;51.440;6.938;2022-09-20T15:03:02;14.70;15.80
12436;DHT22;6282;51.440;6.938;2022-09-20T15:05:31;14.70;99.90
12436;DHT22;6282;51.440;6.938;2022-09-20T15:07:59;14.80;99.90
12436;DHT22;6282;51.440;6.938;2022-09-20T15:10:26;14.80;99.90
12436;DHT22;6282;51.440;6.938;2022-09-20T15:12:54;14.80;99.90
12436;DHT22;6282;51.440;6.938;2022-09-20T15:15:21;15.00;1.00
12436;DHT22;6282;51.440;6.938;2022-09-20T15:17:48;15.00;1.00
12436;DHT22;6282;51.440;6.938;2022-09-20T15:20:18;14.90;99.90
12436;DHT22;6282;51.440;6.938;2022-09-20T15:22:46;14.90;1.00
12436;DHT22;6282;51.440;6.938;2022-09-20T15:25:15;15.10;99.90
12436;DHT22;6282;51.440;6.938;2022-09-20T15:27:43;15.20;99.90
12436;DHT22;6282;51.440;6.938;2022-09-20T15:30:13;15.10;1.00
12436;DHT22;6282;51.440;6.938;2022-09-20T15:32:41;15.10;1.00
12436;DHT22;6282;51.440;6.938;2022-09-20T15:35:08;15.00;1.00
12436;DHT22;6282;51.440;6.938;2022-09-20T15:37:36;15.10;1.00
12436;DHT22;6282;51.440;6.938;2022-09-20T15:40:04;15.10;35.00
12436;DHT22;6282;51.440;6.938;2022-09-20T15:42:32;15.10;78.50
12436;DHT22;6282;51.440;6.938;2022-09-20T15:45:04;15.20;1.00
12436;DHT22;6282;51.440;6.938;2022-09-20T15:47:31;15.20;52.00
12436;DHT22;6282;51.440;6.938;2022-09-20T15:49:58;15.20;99.90
12436;DHT22;6282;51.440;6.938;2022-09-20T15:52:25;15.20;40.60
12436;DHT22;6282;51.440;6.938;2022-09-20T15:54:54;15.00;1.00
12436;DHT22;6282;51.440;6.938;2022-09-20T15:57:24;14.90;1.00
12436;DHT22;6282;51.440;6.938;2022-09-20T15:59:51;15.00;1.00
12436;DHT22;6282;51.440;6.938;2022-09-20T16:02:18;15.00;99.90
12436;DHT22;6282;51.440;6.938;2022-09-20T16:04:46;14.80;99.90
12436;DHT22;6282;51.440;6.938;2022-09-20T16:07:15;14.90;99.90
12436;DHT22;6282;51.440;6.938;2022-09-20T16:09:43;14.80;1.00
12436;DHT22;6282;51.440;6.938;2022-09-20T16:12:11;14.80;99.90
12436;DHT22;6282;51.440;6.938;2022-09-20T16:14:38;14.70;1.00
12436;DHT22;6282;51.440;6.938;2022-09-20T16:17:05;14.80;99.90
12436;DHT22;6282;51.440;6.938;2022-09-20T16:19:31;14.80;68.20
12436;DHT22;6282;51.440;6.938;2022-09-20T16:21:58;14.70;99.90
12436;DHT22;6282;51.440;6.938;2022-09-20T16:24:28;14.80;24.60
12436;DHT22;6282;51.440;6.938;2022-09-20T16:26:55;14.70;1.00
12436;DHT22;6282;51.440;6.938;2022-09-20T16:29:24;14.60;99.90
12436;DHT22;6282;51.440;6.938;2022-09-20T16:31:52;14.50;1.00
12436;DHT22;6282;51.440;6.938;2022-09-20T16:34:20;14.40;99.90
12436;DHT22;6282;51.440;6.938;2022-09-20T16:36:49;14.40;72.80
12436;DHT22;6282;51.440;6.938;2022-09-20T16:39:18;14.50;99.90
12436;DHT22;6282;51.440;6.938;2022-09-20T16:41:46;14.50;99.90
12436;DHT22;6282;51.440;6.938;2022-09-20T16:44:14;14.40;1.00
12436;DHT22;6282;51.440;6.938;2022-09-20T16:46:42;14.40;99.90
12436;DHT22;6282;51.440;6.938;2022-09-20T16:49:10;14.40;99.90
12436;DHT22;6282;51.440;6.938;2022-09-20T16:51:39;14.40;1.00
12436;DHT22;6282;51.440;6.938;2022-09-20T16:54:07;14.40;99.90
12436;DHT22;6282;51.440;6.938;2022-09-20T16:56:36;14.20;1.00
12436;DHT22;6282;51.440;6.938;2022-09-20T16:59:04;14.20;1.00
12436;DHT22;6282;51.440;6.938;2022-09-20T17:01:32;14.20;1.00
12436;DHT22;6282;51.440;6.938;2022-09-20T17:04:03;14.20;1.00
12436;DHT22;6282;51.440;6.938;2022-09-20T17:06:31;14.30;91.30
12436;DHT22;6282;51.440;6.938;2022-09-20T17:09:00;14.00;99.90
12436;DHT22;6282;51.440;6.938;2022-09-20T17:11:28;13.80;99.90
12436;DHT22;6282;51.440;6.938;2022-09-20T17:13:56;13.80;99.90
12436;DHT22;6282;51.440;6.938;2022-09-20T17:16:24;13.80;99.90
12436;DHT22;6282;51.440;6.938;2022-09-20T17:18:52;13.70;99.90
12436;DHT22;6282;51.440;6.938;2022-09-20T17:21:21;13.60;99.90
12436;DHT22;6282;51.440;6.938;2022-09-20T17:23:49;13.30;99.90